Time;durP1;ratioP1;P1;durP2;ratioP2;P2;SDS_P1;SDS_P2;PMS_P1;PMS_P2;Temp;Humidity;BMP_temperature;BMP_pressure;BME280_temperature;BME280_humidity;BME280_pressure;Samples;Min_cycle;Max_cycle;Signal;HPM_P1;HPM_P2
2022/12/08 00:09:20;;;;;;;13.37;7.13;;;;;;;6.98;47.68;100596.47;31334972;28;20076;-73
2022/12/08 00:19:58;;;;;;;11.80;7.00;;;;;;;7.01;47.66;100588.41;31333058;28;20049;-73
2022/12/08 00:35:00;;;;;;;13.93;7.43;;;;;;;7.11;47.52;100586.84;31337401;28;20061;-74
2022/12/08 00:50:04;;;;;;;8.47;4.93;;;;;;;6.89;48.28;100577.94;31346751;28;20049;-75
2022/12/08 01:05:07;;;;;;;15.03;6.43;;;;;;;7.10;48.63;100586.09;31326333;28;20576;-72
2022/12/08 01:20:09;;;;;;;13.17;7.77;;;;;;;6.92;49.31;100596.06;31335464;28;20084;-73
2022/12/08 01:35:11;;;;;;;18.53;7.03;;;;;;;7.01;49.87;100579.53;31323012;28;20385;-74
2022/12/08 01:50:16;;;;;;;12.80;6.83;;;;;;;6.97;50.94;100570.63;31354425;28;20045;-74
2022/12/08 02:05:21;;;;;;;12.27;6.73;;;;;;;7.32;51.55;100596.94;31352128;28;20091;-72
2022/12/08 02:20:44;;;;;;;21.57;8.17;;;;;;;7.46;51.14;100594.25;31354592;28;20072;-73
2022/12/08 02:36:10;;;;;;;13.63;6.47;;;;;;;7.51;51.86;100586.53;31352253;28;20059;-73
2022/12/08 02:51:12;;;;;;;15.07;6.67;;;;;;;7.39;51.68;100605.81;31329301;28;20053;-73
2022/12/08 03:06:39;;;;;;;15.30;7.03;;;;;;;7.60;51.64;100599.66;31333304;28;20103;-70
2022/12/08 03:21:44;;;;;;;13.20;6.53;;;;;;;7.64;51.91;100595.03;31334994;28;20053;-70
2022/12/08 03:36:46;;;;;;;16.43;7.83;;;;;;;7.67;52.24;100599.66;31348552;28;20520;-70
2022/12/08 03:51:48;;;;;;;18.23;7.53;;;;;;;7.69;53.35;100597.34;31346639;28;20052;-69
2022/12/08 04:06:50;;;;;;;19.90;8.37;;;;;;;7.79;53.30;100596.59;31321915;28;20060;-70
2022/12/08 04:21:52;;;;;;;19.67;9.40;;;;;;;8.21;52.10;100584.16;31327779;28;20049;-71
2022/12/08 04:36:54;;;;;;;19.13;8.43;;;;;;;8.18;52.44;100587.63;31329211;28;20766;-74
2022/12/08 04:51:56;;;;;;;16.63;8.77;;;;;;;8.17;52.92;100594.97;31334604;28;20045;-73
2022/12/08 05:06:57;;;;;;;22.07;8.20;;;;;;;8.18;52.83;100623.56;31307574;28;20106;-71
2022/12/08 05:21:59;;;;;;;21.60;9.33;;;;;;;8.24;53.26;100634.78;31323644;28;20049;-71
2022/12/08 05:37:01;;;;;;;25.57;9.43;;;;;;;8.13;53.27;100645.59;31339693;28;20061;-70
2022/12/08 05:52:03;;;;;;;22.93;11.00;;;;;;;8.24;53.49;100651.00;31334990;28;20381;-70
2022/12/08 06:07:05;;;;;;;21.53;10.20;;;;;;;8.12;54.23;100664.91;31332196;28;20049;-70
2022/12/08 06:22:10;;;;;;;29.13;10.97;;;;;;;8.14;54.14;100657.19;31332766;28;20135;-71
2022/12/08 06:37:12;;;;;;;23.23;8.97;;;;;;;8.17;54.63;100648.31;31346301;28;20049;-71
2022/12/08 06:52:14;;;;;;;21.33;10.43;;;;;;;8.25;54.88;100663.38;31347152;28;20080;-73
2022/12/08 07:07:16;;;;;;;19.87;9.33;;;;;;;8.12;54.42;100673.03;31346522;28;20072;-76
2022/12/08 07:22:18;;;;;;;25.67;10.73;;;;;;;8.35;54.29;100657.19;31376371;28;20041;-73
2022/12/08 07:37:20;;;;;;;27.40;10.67;;;;;;;8.39;54.40;100682.31;31365601;28;20049;-74
2022/12/08 07:52:23;;;;;;;26.37;11.50;;;;;;;8.39;55.05;100687.72;31358327;28;20056;-74
2022/12/08 08:07:25;;;;;;;29.73;12.63;;;;;;;8.50;54.91;100669.50;31340395;28;20060;-74
2022/12/08 08:22:27;;;;;;;29.10;11.03;;;;;;;8.67;54.80;100664.47;31317806;28;20045;-74
2022/12/08 08:37:29;;;;;;;15.53;7.30;;;;;;;8.46;55.50;100666.06;31345563;28;20064;-74
2022/12/08 08:52:32;;;;;;;19.80;8.57;;;;;;;8.50;55.78;100657.94;31342434;28;20049;-82
2022/12/08 09:07:33;;;;;;;28.30;10.90;;;;;;;8.63;55.61;100658.28;31382204;28;20065;-75
2022/12/08 09:22:35;;;;;;;27.43;9.30;;;;;;;8.71;55.75;100659.81;31338153;28;20179;-73
2022/12/08 09:37:38;;;;;;;25.07;10.77;;;;;;;9.01;55.88;100673.59;31344409;28;20050;-82
2022/12/08 09:52:46;;;;;;;23.50;8.23;;;;;;;9.11;56.03;100677.44;31348200;28;20618;-70
2022/12/08 10:07:58;;;;;;;25.80;8.43;;;;;;;9.43;56.03;100666.44;31384953;28;20083;-77
2022/12/08 10:23:12;;;;;;;22.80;9.33;;;;;;;9.68;55.49;100672.47;31366558;28;20406;-70
2022/12/08 10:38:25;;;;;;;22.00;8.20;;;;;;;9.79;55.29;100666.97;31346608;28;20060;-79
2022/12/08 10:53:32;;;;;;;18.80;9.00;;;;;;;9.79;55.76;100661.53;31379288;28;20099;-71
2022/12/08 11:08:48;;;;;;;17.37;7.47;;;;;;;9.70;56.48;100674.78;31412553;28;20064;-79
2022/12/08 11:23:49;;;;;;;15.27;7.00;;;;;;;9.70;56.75;100670.13;31404148;28;20053;-81
2022/12/08 11:38:56;;;;;;;17.40;8.40;;;;;;;9.66;57.22;100636.88;31430634;28;20059;-81
2022/12/08 11:54:11;;;;;;;18.37;8.20;;;;;;;9.76;57.01;100648.78;31431867;28;20059;-83
2022/12/08 12:09:32;;;;;;;27.17;10.27;;;;;;;9.88;57.21;100630.09;31357498;28;20686;-71
2022/12/08 12:24:37;;;;;;;31.43;10.03;;;;;;;9.93;57.07;100629.66;31328357;28;20048;-71
2022/12/08 12:40:14;;;;;;;27.07;10.30;;;;;;;10.03;56.93;100632.69;31340135;28;20075;-72
2022/12/08 12:55:23;;;;;;;18.70;8.93;;;;;;;9.93;57.43;100629.66;31385489;28;20078;-80
2022/12/08 13:10:30;;;;;;;23.53;10.17;;;;;;;10.04;57.07;100629.56;31411628;28;20065;-80
2022/12/08 13:25:44;;;;;;;31.53;10.03;;;;;;;10.43;56.64;100656.34;31343687;28;20049;-73
2022/12/08 13:40:46;;;;;;;18.77;7.77;;;;;;;10.16;57.12;100653.47;31341784;28;20056;-83
2022/12/08 13:55:53;;;;;;;17.63;8.73;;;;;;;10.27;57.16;100641.78;31352094;28;20084;-70
2022/12/08 14:11:33;;;;;;;;;;;;;;;10.33;56.77;100656.47;31409548;28;20055;-78
2022/12/08 14:26:35;;;;;;;17.40;8.37;;;;;;;10.10;57.45;100654.31;31374307;28;19921;-82
2022/12/08 14:41:38;;;;;;;25.60;9.43;;;;;;;9.93;57.88;100654.06;31367791;28;20103;-78
2022/12/08 14:56:42;;;;;;;27.00;10.33;;;;;;;10.22;57.75;100664.69;31373705;28;22108;-72
2022/12/08 15:11:44;;;;;;;34.47;12.47;;;;;;;10.20;57.74;100656.19;31333080;28;20045;-75
2022/12/08 15:26:49;;;;;;;31.97;10.77;;;;;;;10.21;58.05;100660.44;31357476;28;20045;-84
2022/12/08 15:41:51;;;;;;;25.27;8.97;;;;;;;10.01;57.65;100689.28;31398716;28;20144;-73
2022/12/08 15:56:56;;;;;;;22.73;9.30;;;;;;;10.39;57.44;100696.34;31337079;28;20065;-73
2022/12/08 16:28:04;;;;;;;16.27;8.07;;;;;;;9.96;57.07;100686.97;31350976;28;20135;-78
2022/12/08 16:43:26;;;;;;;30.20;11.20;;;;;;;10.01;57.63;100679.19;31367554;28;20053;-77
2022/12/08 16:58:28;;;;;;;20.63;10.10;;;;;;;9.98;57.19;100680.00;31371039;28;20052;-80
2022/12/08 17:13:34;;;;;;;13.73;7.97;;;;;;;10.16;57.18;100647.28;31378577;28;20572;-71
2022/12/08 17:28:37;;;;;;;15.13;6.83;;;;;;;9.83;56.90;100629.75;31404474;28;20060;-77
2022/12/08 17:43:59;;;;;;;21.77;9.20;;;;;;;9.63;57.56;100629.53;31389894;28;20374;-71
2022/12/08 17:59:30;;;;;;;14.03;7.20;;;;;;;9.76;57.90;100603.47;31357758;28;20061;-81
2022/12/08 18:14:37;;;;;;;11.93;7.33;;;;;;;9.66;58.15;100619.84;31348679;28;20072;-74
2022/12/08 18:29:40;;;;;;;15.27;8.80;;;;;;;9.92;57.24;100633.53;31352508;28;20493;-72
2022/12/08 18:44:42;;;;;;;13.87;6.57;;;;;;;9.98;56.72;100631.16;31370149;28;20053;-71
2022/12/08 18:59:44;;;;;;;20.07;7.23;;;;;;;10.43;56.70;100642.00;31355367;28;20106;-73
2022/12/08 19:14:46;;;;;;;18.37;8.83;;;;;;;10.56;55.96;100654.66;31343199;28;20107;-71
2022/12/08 19:29:48;;;;;;;16.40;7.33;;;;;;;10.33;55.88;100640.97;31349899;28;20060;-72
2022/12/08 19:44:53;;;;;;;17.23;9.53;;;;;;;10.59;55.82;100617.81;31345983;28;20122;-72
2022/12/08 19:59:55;;;;;;;16.53;8.40;;;;;;;10.59;55.75;100613.16;31341614;28;20406;-79
2022/12/08 20:15:00;;;;;;;17.43;7.90;;;;;;;10.94;55.94;100608.44;31413962;28;20512;-85
2022/12/08 20:30:02;;;;;;;17.27;9.20;;;;;;;10.85;55.45;100605.47;31370636;28;20045;-80
2022/12/08 20:45:07;;;;;;;22.70;9.57;;;;;;;10.72;56.11;100597.06;31364854;28;20052;-79
2022/12/08 21:00:11;;;;;;;19.30;9.07;;;;;;;10.82;56.47;100585.31;31375885;28;20413;-80
2022/12/08 21:15:13;;;;;;;27.07;11.00;;;;;;;10.81;56.79;100586.50;31348757;28;20053;-69
2022/12/08 21:30:15;;;;;;;20.63;10.23;;;;;;;10.82;57.04;100589.97;31303939;28;20132;-71
2022/12/08 21:45:20;;;;;;;23.90;10.93;;;;;;;10.95;57.13;100566.50;31301689;28;20052;-71
2022/12/08 22:00:23;;;;;;;32.73;10.57;;;;;;;11.20;56.85;100571.59;31310816;28;20483;-70
2022/12/08 22:15:28;;;;;;;26.07;13.03;;;;;;;11.59;55.96;100570.97;31332041;28;20048;-71
2022/12/08 22:30:30;;;;;;;34.47;11.73;;;;;;;11.58;55.59;100559.31;31353585;28;20057;-72
2022/12/08 22:45:39;;;;;;;24.20;10.53;;;;;;;11.89;55.48;100561.97;31348942;28;20170;-70
2022/12/08 23:00:42;;;;;;;34.13;12.87;;;;;;;11.58;56.36;100572.16;31356459;28;20053;-71
2022/12/08 23:15:44;;;;;;;31.37;12.30;;;;;;;11.71;57.14;100559.53;31365160;28;20411;-71
2022/12/08 23:30:46;;;;;;;39.47;13.63;;;;;;;11.57;58.03;100551.63;31336389;28;20057;-72
2022/12/08 23:45:48;;;;;;;57.50;13.57;;;;;;;11.65;58.03;100555.72;31336400;28;20513;-69
